Houlton International Airport Houlton US
ICAO: KHUL
IATA: HUL
Category: Medium
Scheduled Services: No

Elevation: 489 ft
TransAlt. 18000 ft.

Airport Communications:
ASOS:132.025
BOSTON CNTR:120.25
BANGOR RDO:122.2
CTAF/UNICOM:122.8

KHUL Zoom In..

Runways:

(A) RW 01 length 2700 ft width 60 ft
---- / hdg 10

(B) RW 05 length 5015 ft width 100 ft
---- / hdg 49

(C) RW 19 length 2700 ft width 60 ft
---- / hdg 190

(D) RW 23 length 5015 ft width 100 ft
---- / hdg 229

Location; KHUL
Day. 21 / Time. 23.53 Zulu
* Altimeter: 30.43
* Temperature: 04° c. 39.2°f.
* Wind from: 000° Speed 00 kn.
Dewpoint: 01° c.
Visibility: 10 Statute Miles.
Clouds: Clear (automated report).

KHUL 212353Z AUTO 00000KT 10SM CLR 04/01 A3043 RMK AO2 SLP312 T00440011 10183 20044 55004

Going to: --> -->


Wind - Calm.

 
 
jpsmedia worldairports.se 2020   terms of use